createdAt,value
2018-04-23T00:02:05.641Z,10.3
2018-04-23T00:08:06.375Z,11.68
2018-04-23T00:14:07.119Z,10.37
2018-04-23T00:18:07.902Z,10.3
2018-04-23T00:24:08.632Z,10.31
2018-04-23T00:28:09.547Z,10.42
2018-04-23T00:30:10.484Z,9.87
2018-04-23T00:34:11.157Z,9.71
2018-04-23T00:40:11.892Z,9.73
2018-04-23T00:44:12.582Z,9.47
2018-04-23T00:50:13.324Z,9.45
2018-04-23T00:56:14.068Z,9.74
2018-04-23T01:00:15.184Z,9.73
2018-04-23T01:06:15.974Z,9.83
2018-04-23T01:10:16.854Z,9.84
2018-04-23T01:12:17.557Z,10.15
2018-04-23T01:16:18.310Z,10.83
2018-04-23T01:22:19.000Z,11.06
2018-04-23T01:26:19.900Z,11.02
2018-04-23T01:32:20.660Z,10.97
2018-04-23T01:36:21.384Z,10.26
2018-04-23T01:38:22.099Z,11.2
2018-04-23T01:42:22.904Z,10.93
2018-04-23T01:48:23.572Z,10.54
2018-04-23T01:52:24.475Z,9.75
2018-04-23T01:58:25.154Z,10.04
2018-04-23T02:04:26.044Z,10.08
2018-04-23T02:08:26.861Z,9.45
2018-04-23T02:14:27.636Z,9.46
2018-04-23T02:18:28.415Z,9.81
2018-04-23T02:20:29.169Z,10.41
2018-04-23T02:24:29.829Z,10.97
2018-04-23T02:30:31.094Z,10.18
2018-04-23T02:34:31.888Z,10.16
2018-04-23T02:40:32.668Z,10.43
2018-04-23T02:44:33.434Z,10
2018-04-23T02:46:34.074Z,11.44
2018-04-23T02:50:34.854Z,10.84
2018-04-23T02:56:35.547Z,11.29
2018-04-23T03:00:36.853Z,11.71
2018-04-23T03:06:37.709Z,11.54
2018-04-23T03:12:38.570Z,10.63
2018-04-23T03:16:39.489Z,11.35
2018-04-23T03:22:40.328Z,10.5
2018-04-23T03:26:41.215Z,10.23
2018-04-23T03:28:41.939Z,12.51
2018-04-23T03:32:42.761Z,11.66
2018-04-23T03:38:48.355Z,14.15
2018-04-23T03:42:49.293Z,11.88
2018-04-23T03:48:50.159Z,13.58
2018-04-23T03:52:50.901Z,13.69
2018-04-23T03:54:51.790Z,14.86
2018-04-23T03:58:52.592Z,16.44
2018-04-23T04:04:53.360Z,13.44
2018-04-23T04:08:54.007Z,12.89
2018-04-23T04:14:54.769Z,13.72
2018-04-23T04:20:55.447Z,15.63
2018-04-23T04:24:56.293Z,14.93
2018-04-23T04:30:57.028Z,14.13
2018-04-23T04:34:57.832Z,15.52
2018-04-23T04:36:58.530Z,14.09
2018-04-23T04:40:59.264Z,15.86
2018-04-23T04:47:00.054Z,14.03
2018-04-23T04:51:00.908Z,14.55
2018-04-23T04:57:01.674Z,14.2
2018-04-23T05:03:02.539Z,14.43
2018-04-23T05:07:03.618Z,15.21
2018-04-23T05:13:04.394Z,15.84
2018-04-23T05:17:05.195Z,16.84
2018-04-23T05:23:05.987Z,14.22
2018-04-23T05:29:06.846Z,16.66
2018-04-23T05:33:07.688Z,16.88
2018-04-23T05:39:08.470Z,16.92
2018-04-23T05:43:09.390Z,16.69
2018-04-23T05:45:10.313Z,17.02
2018-04-23T05:49:11.270Z,17.05
2018-04-23T05:55:11.958Z,17.76
2018-04-23T05:59:12.627Z,18.66
2018-04-23T06:05:13.553Z,21.45
2018-04-23T06:11:14.472Z,22.86
2018-04-23T06:15:16.009Z,23.7
2018-04-23T06:21:16.794Z,27.25
2018-04-23T06:25:17.699Z,26.4
2018-04-23T06:31:18.360Z,26.76
2018-04-23T06:37:19.152Z,23.34
2018-04-23T06:41:19.997Z,22.45
2018-04-23T06:47:20.958Z,24.05
2018-04-23T06:51:21.719Z,24.23
2018-04-23T06:53:22.531Z,22.85
2018-04-23T06:57:23.364Z,22.24
2018-04-23T07:03:24.146Z,24.26
2018-04-23T07:07:25.146Z,24.55
2018-04-23T07:13:26.237Z,25.32
2018-04-23T07:19:27.105Z,24.62
2018-04-23T07:23:28.043Z,24.33
2018-04-23T07:29:28.884Z,26.16
2018-04-23T07:33:29.732Z,25.48
2018-04-23T07:35:30.468Z,27.78
2018-04-23T07:39:31.398Z,28.01
2018-04-23T07:45:32.173Z,29.88
2018-04-23T07:49:32.876Z,28.45
2018-04-23T07:55:33.668Z,32.06
2018-04-23T07:59:34.616Z,31.72
2018-04-23T08:01:35.417Z,35.62
2018-04-23T08:05:36.243Z,33.83
2018-04-23T08:11:37.054Z,34.97
2018-04-23T08:15:37.928Z,34.73
2018-04-23T08:21:38.730Z,34.1
2018-04-23T08:27:39.797Z,38.98
2018-04-23T08:31:40.556Z,36.41
2018-04-23T08:37:41.389Z,38.15
2018-04-23T08:41:42.355Z,36.24
2018-04-23T08:43:43.224Z,36.45
2018-04-23T08:47:43.968Z,33.81
2018-04-23T08:53:44.822Z,35.09
2018-04-23T08:57:45.724Z,35.81
2018-04-23T09:03:46.534Z,33.93
2018-04-23T09:07:47.267Z,32.39
2018-04-23T09:09:47.960Z,30.44
2018-04-23T09:13:48.863Z,29.37
2018-04-23T09:19:49.604Z,32.28
2018-04-23T09:23:50.491Z,31.27
2018-04-23T09:29:51.349Z,32.67
2018-04-23T09:35:52.277Z,29.01
2018-04-23T09:39:53.028Z,26.08
2018-04-23T09:45:54.017Z,28.36
2018-04-23T09:49:54.746Z,25.36
2018-04-23T09:51:55.504Z,23.96
2018-04-23T09:55:56.223Z,22.96
2018-04-23T10:01:57.025Z,21.01
2018-04-23T10:05:57.793Z,20.49
2018-04-23T10:11:58.704Z,20.86
2018-04-23T10:17:59.481Z,19.77
2018-04-23T10:22:01.326Z,20.9
2018-04-23T10:28:02.047Z,23.23
2018-04-23T10:32:02.833Z,21.36
2018-04-23T10:38:03.670Z,18.11
2018-04-23T10:44:04.529Z,19.09
2018-04-23T10:48:05.427Z,19.23
2018-04-23T10:54:06.216Z,17.96
2018-04-23T10:58:07.148Z,16.55
2018-04-23T11:00:08.004Z,19.38
2018-04-23T11:04:08.942Z,16.6
2018-04-23T11:10:09.966Z,17.94
2018-04-23T11:14:11.067Z,16.86
2018-04-23T11:20:11.886Z,21.29
2018-04-23T11:26:12.848Z,19.67
2018-04-23T11:30:14.019Z,18.26
2018-04-23T11:36:15.087Z,20.83
2018-04-23T11:40:15.916Z,23.41
2018-04-23T11:42:16.700Z,18.26
2018-04-23T11:46:17.509Z,21.28
2018-04-23T11:52:18.635Z,20.04
2018-04-23T11:56:24.106Z,24.31
2018-04-23T12:02:25.444Z,18.67
2018-04-23T12:06:26.358Z,20.93
2018-04-23T12:08:27.175Z,19.6
2018-04-23T12:12:28.266Z,17.52
2018-04-23T12:18:29.186Z,19.69
2018-04-23T12:22:30.396Z,21.51
2018-04-23T12:28:31.373Z,20.59
2018-04-23T12:34:32.379Z,22.49
2018-04-23T12:38:33.473Z,18.19
2018-04-23T12:44:34.596Z,19.11
2018-04-23T12:48:41.423Z,16.07
2018-04-23T12:54:42.861Z,22.64
2018-04-23T13:00:43.806Z,20.06
2018-04-23T13:04:44.769Z,17.87
2018-04-23T13:10:45.671Z,18.49
2018-04-23T13:14:46.599Z,17.52
2018-04-23T13:16:47.452Z,15.24
2018-04-23T13:20:48.429Z,15.44
2018-04-23T13:26:49.402Z,16.96
2018-04-23T13:30:50.334Z,16.84
2018-04-23T13:36:51.311Z,18.97
2018-04-23T13:40:52.225Z,13.94
2018-04-23T13:42:53.197Z,14.9
2018-04-23T13:46:54.317Z,17.79
2018-04-23T13:52:55.441Z,16.47
2018-04-23T13:56:56.486Z,13.7
2018-04-23T14:02:57.588Z,16.05
2018-04-23T14:08:58.673Z,18.09
2018-04-23T14:12:59.635Z,14.47
2018-04-23T14:19:00.826Z,15.85
2018-04-23T14:23:01.739Z,13.27
2018-04-23T14:25:02.682Z,14.91
2018-04-23T14:29:03.773Z,16.52
2018-04-23T14:35:04.722Z,13.19
2018-04-23T14:39:05.616Z,14.21
2018-04-23T14:45:06.898Z,16.03
2018-04-23T14:49:07.808Z,16.35
2018-04-23T14:51:08.967Z,13.9
2018-04-23T14:55:09.947Z,14.78
2018-04-23T15:01:10.901Z,15.23
2018-04-23T15:05:11.973Z,8.73
2018-04-23T15:11:13.002Z,12.45
2018-04-23T15:17:14.434Z,11.22
2018-04-23T15:21:15.475Z,13.23
2018-04-23T15:27:16.532Z,13.4
2018-04-23T15:31:17.543Z,11.47
2018-04-23T15:33:18.583Z,13.23
2018-04-23T15:37:19.867Z,9.76
2018-04-23T15:43:20.798Z,16.03
2018-04-23T15:47:23.598Z,13.44
2018-04-23T15:53:27.441Z,14.65
2018-04-23T15:57:28.417Z,9.73
2018-04-23T15:59:29.937Z,15.57
2018-04-23T16:03:30.887Z,13.71
2018-04-23T16:09:31.798Z,10.6
2018-04-23T16:13:32.889Z,8.08
2018-04-23T16:19:33.915Z,13.74
2018-04-23T16:25:34.793Z,10.33
2018-04-23T16:29:36.873Z,12.2
2018-04-23T16:35:37.992Z,14.23
2018-04-23T16:39:38.981Z,14.41
2018-04-23T16:45:40.235Z,13.67
2018-04-23T16:51:41.228Z,13.23
2018-04-23T16:55:42.177Z,13.23
2018-04-23T17:01:43.246Z,12.48
2018-04-23T17:05:44.043Z,12.79
2018-04-23T17:07:44.973Z,11.15
2018-04-23T17:11:45.872Z,12.44
2018-04-23T17:17:46.887Z,11.71
2018-04-23T17:21:47.785Z,12.61
2018-04-23T17:27:48.810Z,12.43
2018-04-23T17:33:49.880Z,13.08
2018-04-23T17:37:50.894Z,11.78
2018-04-23T17:43:52.436Z,15.74
2018-04-23T17:47:53.430Z,14.02
2018-04-23T17:53:54.576Z,12.38
2018-04-23T17:59:55.483Z,14.81
2018-04-23T18:03:57.540Z,16.27
2018-04-23T18:09:58.683Z,14.25
2018-04-23T18:13:59.604Z,17.25
2018-04-23T18:16:00.450Z,16.55
2018-04-23T18:20:01.498Z,16.75
2018-04-23T18:26:02.366Z,15.37
2018-04-23T18:30:03.428Z,13.69
2018-04-23T18:36:04.273Z,17.58
2018-04-23T18:42:05.294Z,13.1
2018-04-23T18:46:06.264Z,16.21
2018-04-23T18:52:07.222Z,20.17
2018-04-23T18:56:08.223Z,18.79
2018-04-23T19:02:09.156Z,15.98
2018-04-23T19:08:10.058Z,16.47
2018-04-23T19:12:11.120Z,18.4
2018-04-23T19:18:12.131Z,13.05
2018-04-23T19:22:13.940Z,12.9
2018-04-23T19:24:15.236Z,15.2
2018-04-23T19:28:16.134Z,14.32
2018-04-23T19:34:17.076Z,14.88
2018-04-23T19:38:17.941Z,12.28
2018-04-23T19:44:18.885Z,11.82
2018-04-23T19:50:19.783Z,13.47
2018-04-23T19:54:20.697Z,13.83
2018-04-23T20:00:22.025Z,16.41
2018-04-23T20:04:22.858Z,13.7
2018-04-23T20:10:23.774Z,13.97
2018-04-23T20:16:24.812Z,16.27
2018-04-23T20:20:25.655Z,13.85
2018-04-23T20:26:26.588Z,13.19
2018-04-23T20:30:27.937Z,13.93
2018-04-23T20:32:28.685Z,13.73
2018-04-23T20:36:29.650Z,12.88
2018-04-23T20:42:30.519Z,15.55
2018-04-23T20:46:31.547Z,16.28
2018-04-23T20:52:32.485Z,13.25
2018-04-23T20:58:33.417Z,17.46
2018-04-23T21:02:34.244Z,16.26
2018-04-23T21:08:35.190Z,15.77
2018-04-23T21:12:36.130Z,15.07
2018-04-23T21:18:37.258Z,13.66
2018-04-23T21:24:38.055Z,14.79
2018-04-23T21:28:39.006Z,14.99
2018-04-23T21:34:40.235Z,17.68
2018-04-23T21:38:41.142Z,15.55
2018-04-23T21:40:42.131Z,14.27
2018-04-23T21:44:42.932Z,13.54
2018-04-23T21:50:43.853Z,15.46
2018-04-23T21:54:44.814Z,18.56
2018-04-23T22:00:45.751Z,14.38
2018-04-23T22:06:46.695Z,13.33
2018-04-23T22:10:47.596Z,15.54
2018-04-23T22:16:48.698Z,16.23
2018-04-23T22:20:49.537Z,18.34
2018-04-23T22:22:50.468Z,15.78
2018-04-23T22:26:51.650Z,16.79
2018-04-23T22:32:52.374Z,14.76
2018-04-23T22:36:53.393Z,14.82
2018-04-23T22:42:54.352Z,14.25
2018-04-23T22:46:55.245Z,15.51
2018-04-23T22:48:56.364Z,12.87
2018-04-23T22:52:57.361Z,14.52
2018-04-23T22:58:58.464Z,16.36
2018-04-23T23:02:59.396Z,17.86
2018-04-23T23:14:01.129Z,14.94
2018-04-23T23:20:02.149Z,14.64
2018-04-23T23:24:03.044Z,12.96
2018-04-23T23:30:04.200Z,13.58
2018-04-23T23:36:05.101Z,13.84
2018-04-23T23:40:06.070Z,13.96
2018-04-23T23:46:08.149Z,13.5
2018-04-23T23:50:08.979Z,11.87
2018-04-23T23:56:09.843Z,15.28
